createdAt,value
2022-10-22T00:00:04.410Z,71.97
2022-10-22T00:01:06.176Z,71.72
2022-10-22T00:02:08.154Z,71.73
2022-10-22T00:03:10.045Z,71.60
2022-10-22T00:04:11.638Z,71.82
2022-10-22T00:05:13.201Z,71.93
2022-10-22T00:06:14.806Z,72.26
2022-10-22T00:07:17.389Z,72.48
2022-10-22T00:08:18.937Z,72.73
2022-10-22T00:09:20.535Z,72.39
2022-10-22T00:10:22.270Z,72.27
2022-10-22T00:11:23.822Z,72.30
2022-10-22T00:12:25.463Z,72.25
2022-10-22T00:13:27.126Z,72.16
2022-10-22T00:14:28.689Z,72.22
2022-10-22T00:15:30.241Z,72.39
2022-10-22T00:16:31.801Z,72.61
2022-10-22T00:17:33.372Z,72.61
2022-10-22T00:18:35.393Z,72.81
2022-10-22T00:19:37.044Z,73.13
2022-10-22T00:20:38.891Z,72.68
2022-10-22T00:21:40.499Z,72.57
2022-10-22T00:22:42.149Z,72.85
2022-10-22T00:23:44.070Z,72.32
2022-10-22T00:24:45.738Z,72.00
2022-10-22T00:25:47.319Z,71.60
2022-10-22T00:26:48.860Z,72.05
2022-10-22T00:27:50.429Z,72.76
2022-10-22T00:28:52.072Z,72.69
2022-10-22T00:29:53.678Z,72.72
2022-10-22T00:30:59.292Z,72.68
2022-10-22T00:32:00.826Z,72.38
2022-10-22T00:33:02.437Z,72.46
2022-10-22T00:34:04.099Z,72.64
2022-10-22T00:35:05.906Z,72.92
2022-10-22T00:36:08.254Z,72.99
2022-10-22T00:37:10.171Z,72.60
2022-10-22T00:38:11.765Z,72.59
2022-10-22T00:39:16.189Z,72.30
2022-10-22T00:40:17.832Z,72.31
2022-10-22T00:41:19.560Z,72.17
2022-10-22T00:42:23.188Z,72.31
2022-10-22T00:43:24.871Z,72.27
2022-10-22T00:45:04.774Z,71.96
2022-10-22T00:46:06.337Z,71.67
2022-10-22T00:47:07.950Z,71.92
2022-10-22T00:48:11.184Z,72.03
2022-10-22T00:49:12.724Z,72.74
2022-10-22T00:50:19.718Z,72.83
2022-10-22T00:51:21.796Z,73.24
2022-10-22T00:52:23.460Z,72.85
2022-10-22T00:53:31.467Z,72.90
2022-10-22T00:54:33.596Z,73.23
2022-10-22T00:55:35.407Z,73.50
2022-10-22T00:56:37.218Z,73.38
2022-10-22T00:57:38.805Z,73.29
2022-10-22T00:58:45.194Z,73.44
2022-10-22T00:59:47.232Z,73.69
2022-10-22T01:00:49.047Z,73.65
2022-10-22T01:01:52.919Z,73.74
2022-10-22T01:02:54.529Z,73.77
2022-10-22T01:03:56.339Z,73.42
2022-10-22T01:04:57.893Z,73.78
2022-10-22T01:06:00.709Z,73.65
2022-10-22T01:07:02.264Z,73.27
2022-10-22T01:08:03.960Z,73.44
2022-10-22T01:09:36.435Z,73.42
2022-10-22T01:10:53.344Z,73.71
2022-10-22T01:11:59.410Z,73.10
2022-10-22T01:13:16.778Z,73.55
2022-10-22T01:14:34.771Z,73.64
2022-10-22T01:15:51.750Z,73.79
2022-10-22T01:17:10.622Z,73.69
2022-10-22T01:18:24.302Z,73.46
2022-10-22T01:19:38.617Z,73.50
2022-10-22T01:20:55.722Z,73.48
2022-10-22T01:21:59.898Z,73.51
2022-10-22T01:23:21.949Z,73.35
2022-10-22T01:24:43.924Z,73.52
2022-10-22T01:26:09.449Z,73.44
2022-10-22T01:27:31.515Z,73.39
2022-10-22T01:29:12.181Z,73.55
2022-10-22T01:30:14.310Z,73.30
2022-10-22T01:31:16.085Z,73.34
2022-10-22T01:32:19.587Z,73.33
2022-10-22T01:33:22.066Z,73.32
2022-10-22T01:34:23.620Z,73.56
2022-10-22T01:35:31.311Z,73.55
2022-10-22T01:36:32.870Z,73.47
2022-10-22T01:37:36.551Z,73.41
2022-10-22T01:38:38.190Z,73.29
2022-10-22T01:39:39.873Z,73.36
2022-10-22T01:40:41.440Z,73.54
2022-10-22T01:41:46.092Z,73.66
2022-10-22T01:42:56.680Z,73.67
2022-10-22T01:43:58.277Z,73.73
2022-10-22T01:44:59.844Z,73.43
2022-10-22T01:46:02.688Z,73.19
2022-10-22T01:47:16.412Z,74.02
2022-10-22T01:48:20.969Z,74.09
2022-10-22T01:49:28.494Z,73.94
2022-10-22T01:50:32.794Z,73.94
2022-10-22T01:52:10.576Z,74.11
2022-10-22T01:53:27.147Z,73.66
2022-10-22T01:54:36.040Z,73.37
2022-10-22T01:55:41.825Z,73.66
2022-10-22T01:56:43.321Z,73.91
2022-10-22T01:58:19.929Z,73.69
2022-10-22T01:59:44.080Z,74.02
2022-10-22T02:00:50.114Z,74.52
2022-10-22T02:02:00.107Z,74.57
2022-10-22T02:03:30.976Z,74.76
2022-10-22T02:04:44.606Z,75.05
2022-10-22T02:05:48.978Z,75.34
2022-10-22T02:06:50.925Z,75.37
2022-10-22T02:08:20.206Z,75.75
2022-10-22T02:09:22.045Z,75.86
2022-10-22T02:10:23.611Z,75.96
2022-10-22T02:11:25.239Z,75.86
2022-10-22T02:12:27.454Z,75.82
2022-10-22T02:13:36.492Z,75.69
2022-10-22T02:14:39.345Z,75.41
2022-10-22T02:15:40.880Z,75.33
2022-10-22T02:16:44.188Z,75.45
2022-10-22T02:17:45.884Z,75.14
2022-10-22T02:18:47.755Z,74.78
2022-10-22T02:19:57.919Z,74.46
2022-10-22T02:20:59.579Z,74.64
2022-10-22T02:22:01.244Z,74.92
2022-10-22T02:23:03.062Z,75.12
2022-10-22T02:24:05.001Z,75.18
2022-10-22T02:25:06.784Z,74.74
2022-10-22T02:26:31.752Z,74.47
2022-10-22T02:27:44.804Z,74.33
2022-10-22T02:28:57.565Z,74.96
2022-10-22T02:30:07.534Z,75.33
2022-10-22T02:31:19.098Z,74.78
2022-10-22T02:32:22.759Z,74.62
2022-10-22T02:33:29.284Z,74.57
2022-10-22T02:34:31.635Z,75.09
2022-10-22T02:35:33.245Z,74.99
2022-10-22T02:36:34.792Z,74.87
2022-10-22T02:37:36.392Z,74.79
2022-10-22T02:38:37.997Z,74.97
2022-10-22T02:39:39.629Z,75.00
2022-10-22T02:40:41.236Z,75.28
2022-10-22T02:41:42.809Z,75.44
2022-10-22T02:42:44.367Z,75.58
2022-10-22T02:43:50.346Z,75.69
2022-10-22T02:44:52.381Z,75.70
2022-10-22T02:45:53.932Z,75.67
2022-10-22T02:46:55.570Z,75.92
2022-10-22T02:47:57.142Z,76.13
2022-10-22T02:48:58.693Z,75.65
2022-10-22T02:50:00.280Z,75.46
2022-10-22T02:51:01.877Z,75.74
2022-10-22T02:52:03.508Z,75.83
2022-10-22T02:53:05.075Z,75.81
2022-10-22T02:54:06.629Z,75.80
2022-10-22T02:55:08.308Z,76.10
2022-10-22T02:56:09.985Z,76.07
2022-10-22T02:57:11.637Z,75.98
2022-10-22T02:58:14.075Z,75.96
2022-10-22T02:59:15.605Z,75.97
2022-10-22T03:00:17.217Z,75.97
2022-10-22T03:01:18.831Z,75.86
2022-10-22T03:02:20.504Z,76.08
2022-10-22T03:03:22.058Z,76.22
2022-10-22T03:04:23.606Z,76.24
2022-10-22T03:05:25.205Z,76.06
2022-10-22T03:06:26.761Z,75.74
2022-10-22T03:07:28.419Z,75.46
2022-10-22T03:08:30.069Z,76.02
2022-10-22T03:09:31.730Z,76.15
2022-10-22T03:10:33.309Z,76.19
2022-10-22T03:11:34.863Z,75.97
2022-10-22T03:12:36.483Z,76.09
2022-10-22T03:13:38.181Z,76.16
2022-10-22T03:14:39.805Z,75.88
2022-10-22T03:15:41.435Z,75.99
2022-10-22T03:16:42.979Z,76.13
2022-10-22T03:17:44.534Z,76.10
2022-10-22T03:18:46.156Z,76.07
2022-10-22T03:19:47.924Z,75.96
2022-10-22T03:20:49.541Z,75.96
2022-10-22T03:21:53.970Z,76.11
2022-10-22T03:22:55.484Z,76.01
2022-10-22T03:23:57.228Z,76.07
2022-10-22T03:25:00.836Z,76.07
2022-10-22T03:26:02.413Z,76.17
2022-10-22T03:27:04.077Z,75.87
2022-10-22T03:28:06.631Z,75.87
2022-10-22T03:29:08.690Z,75.98
2022-10-22T03:30:10.729Z,76.60
2022-10-22T03:31:12.356Z,76.79
2022-10-22T03:32:14.021Z,77.05
2022-10-22T03:33:15.582Z,77.03
2022-10-22T03:34:17.132Z,77.13
2022-10-22T03:35:18.733Z,76.97
2022-10-22T03:36:20.265Z,76.98
2022-10-22T03:37:21.883Z,76.72
2022-10-22T03:38:23.440Z,76.69
2022-10-22T03:39:25.054Z,76.70
2022-10-22T03:40:26.615Z,76.87
2022-10-22T03:41:28.326Z,76.89
2022-10-22T03:42:29.924Z,76.89
2022-10-22T03:43:31.599Z,76.97
2022-10-22T03:44:33.252Z,76.88
2022-10-22T03:45:34.804Z,76.69
2022-10-22T03:46:36.425Z,76.49
2022-10-22T03:47:38.154Z,76.82
2022-10-22T03:48:40.008Z,77.23
2022-10-22T03:49:41.542Z,77.69
2022-10-22T03:50:43.111Z,77.69
2022-10-22T03:51:44.751Z,77.61
2022-10-22T03:52:46.341Z,76.91
2022-10-22T03:53:47.871Z,76.88
2022-10-22T03:54:49.422Z,76.72
2022-10-22T03:55:50.973Z,76.50
2022-10-22T03:56:52.612Z,76.93
2022-10-22T03:57:54.175Z,77.00
2022-10-22T03:58:57.451Z,76.93
2022-10-22T03:59:59.111Z,76.95
2022-10-22T04:01:05.618Z,76.93
2022-10-22T04:02:07.305Z,76.89
2022-10-22T04:03:08.868Z,76.91
2022-10-22T04:04:10.479Z,76.43
2022-10-22T04:05:12.059Z,76.07
2022-10-22T04:06:13.853Z,76.46
2022-10-22T04:07:15.482Z,76.30
2022-10-22T04:08:17.024Z,76.21
2022-10-22T04:09:18.621Z,75.76
2022-10-22T04:10:20.299Z,75.74
2022-10-22T04:11:21.955Z,75.76
2022-10-22T04:12:23.653Z,75.95
2022-10-22T04:13:25.332Z,76.11
2022-10-22T04:14:26.867Z,76.83
2022-10-22T04:15:29.207Z,76.68
2022-10-22T04:16:32.681Z,76.82
2022-10-22T04:17:37.299Z,76.67
2022-10-22T04:18:39.171Z,76.54
2022-10-22T04:19:40.760Z,76.79
2022-10-22T04:20:42.324Z,76.78
2022-10-22T04:21:43.909Z,76.86
2022-10-22T04:22:45.500Z,77.11
2022-10-22T04:23:48.124Z,77.15
2022-10-22T04:25:51.156Z,77.00
2022-10-22T04:26:55.508Z,77.15
2022-10-22T04:27:57.043Z,76.97
2022-10-22T04:28:58.634Z,76.96
2022-10-22T04:30:00.189Z,76.87
2022-10-22T04:31:10.536Z,76.88
2022-10-22T04:32:12.094Z,77.00
2022-10-22T04:33:13.668Z,77.51
2022-10-22T04:34:15.264Z,77.61
2022-10-22T04:35:16.905Z,77.56
2022-10-22T04:36:18.673Z,77.47
2022-10-22T04:37:20.246Z,77.47
2022-10-22T04:38:21.820Z,77.39
2022-10-22T04:39:23.467Z,77.25
2022-10-22T04:40:25.056Z,77.36
2022-10-22T04:41:28.295Z,77.48
2022-10-22T04:42:29.881Z,77.49
2022-10-22T04:43:31.424Z,77.50
2022-10-22T04:44:33.180Z,77.59
2022-10-22T04:45:35.102Z,77.62
2022-10-22T04:46:36.964Z,77.40
2022-10-22T04:47:38.827Z,77.31
2022-10-22T04:48:41.272Z,77.31
2022-10-22T04:49:42.872Z,77.22
2022-10-22T04:50:44.462Z,77.25
2022-10-22T04:51:46.019Z,76.95
2022-10-22T04:52:47.578Z,76.62
2022-10-22T04:53:49.183Z,76.37
2022-10-22T04:54:50.871Z,76.57
2022-10-22T04:55:52.439Z,76.95
2022-10-22T04:56:54.011Z,76.75
2022-10-22T04:57:55.558Z,76.61
2022-10-22T04:59:04.413Z,76.71
2022-10-22T05:00:06.700Z,76.62
2022-10-22T05:01:19.137Z,76.64
2022-10-22T05:02:20.802Z,76.67
2022-10-22T05:03:25.106Z,76.69
2022-10-22T05:04:26.704Z,76.63
2022-10-22T05:05:28.277Z,76.78
2022-10-22T05:06:30.335Z,76.78
2022-10-22T05:07:31.924Z,76.71
2022-10-22T05:08:33.583Z,76.90
2022-10-22T05:09:35.249Z,76.52
2022-10-22T05:10:36.801Z,76.62
2022-10-22T05:11:38.944Z,76.71
2022-10-22T05:12:40.554Z,76.95
2022-10-22T05:13:42.134Z,76.99
2022-10-22T05:14:44.796Z,76.77
2022-10-22T05:15:46.564Z,76.59
2022-10-22T05:16:49.001Z,76.78
2022-10-22T05:17:51.101Z,76.98
2022-10-22T05:18:53.369Z,76.88
2022-10-22T05:19:54.966Z,76.84
2022-10-22T05:20:56.567Z,77.14
2022-10-22T05:21:59.930Z,77.12
2022-10-22T05:23:01.508Z,77.09
2022-10-22T05:24:04.166Z,77.10
2022-10-22T05:25:06.250Z,76.92
2022-10-22T05:26:09.208Z,76.78
2022-10-22T05:27:10.825Z,76.63
2022-10-22T05:28:12.430Z,76.59
2022-10-22T05:29:14.113Z,76.54
2022-10-22T05:30:15.674Z,76.78
2022-10-22T05:31:17.610Z,76.95
2022-10-22T05:32:19.187Z,76.82
2022-10-22T05:33:24.110Z,76.93
2022-10-22T05:34:25.876Z,77.07
2022-10-22T05:35:27.438Z,76.77
2022-10-22T05:36:29.037Z,76.63
2022-10-22T05:37:30.583Z,76.37
2022-10-22T05:38:33.031Z,76.31
2022-10-22T05:39:36.988Z,76.63
2022-10-22T05:40:38.575Z,76.43
2022-10-22T05:41:40.261Z,76.41
2022-10-22T05:42:42.014Z,76.49
2022-10-22T05:43:43.855Z,76.42
2022-10-22T05:44:45.498Z,76.36
2022-10-22T05:45:47.066Z,76.36
2022-10-22T05:46:48.694Z,76.73
2022-10-22T05:47:50.309Z,76.85
2022-10-22T05:48:56.150Z,76.63
2022-10-22T05:49:57.710Z,76.48
2022-10-22T05:51:04.555Z,76.58
2022-10-22T05:52:06.193Z,76.36
2022-10-22T05:53:07.745Z,76.23
2022-10-22T05:54:11.031Z,76.02
2022-10-22T05:55:12.591Z,75.98
2022-10-22T05:56:15.721Z,75.93
2022-10-22T05:57:17.306Z,75.87
2022-10-22T05:58:18.890Z,75.62
2022-10-22T05:59:20.468Z,75.55
2022-10-22T06:00:22.068Z,75.12
2022-10-22T06:01:33.323Z,74.46
2022-10-22T06:02:34.937Z,74.14
2022-10-22T06:03:36.630Z,74.74
2022-10-22T06:04:38.199Z,76.09
2022-10-22T06:05:39.808Z,76.15
2022-10-22T06:06:46.755Z,75.54
2022-10-22T06:07:48.392Z,74.73
2022-10-22T06:08:50.765Z,75.30
2022-10-22T06:09:53.868Z,75.45
2022-10-22T06:10:55.447Z,74.85
2022-10-22T06:11:57.265Z,74.06
2022-10-22T06:12:58.888Z,73.07
2022-10-22T06:14:00.523Z,74.27
2022-10-22T06:15:02.101Z,73.81
2022-10-22T06:16:03.738Z,72.80
2022-10-22T06:17:05.397Z,72.75
2022-10-22T06:18:06.981Z,72.41
2022-10-22T06:19:09.299Z,72.65
2022-10-22T06:20:11.384Z,72.76
2022-10-22T06:21:14.601Z,72.47
2022-10-22T06:22:16.229Z,72.65
2022-10-22T06:23:17.774Z,72.44
2022-10-22T06:24:19.449Z,72.45
2022-10-22T06:25:21.004Z,72.35
2022-10-22T06:26:22.558Z,72.47
2022-10-22T06:27:24.191Z,72.94
2022-10-22T06:28:26.084Z,73.17
2022-10-22T06:29:27.655Z,73.35
2022-10-22T06:30:29.212Z,73.38
2022-10-22T06:31:36.707Z,72.89
2022-10-22T06:32:38.617Z,72.80
2022-10-22T06:33:43.509Z,72.60
2022-10-22T06:34:46.249Z,72.64
2022-10-22T06:35:48.639Z,72.89
2022-10-22T06:36:51.692Z,72.97
2022-10-22T06:37:53.390Z,72.76
2022-10-22T06:38:55.416Z,72.65
2022-10-22T06:39:57.020Z,72.54
2022-10-22T06:41:05.925Z,72.26
2022-10-22T06:42:07.499Z,71.85
2022-10-22T06:43:10.022Z,71.67
2022-10-22T06:44:18.567Z,71.71
2022-10-22T06:45:20.102Z,71.33
2022-10-22T06:46:21.848Z,71.50
2022-10-22T06:47:23.395Z,71.50
2022-10-22T06:48:24.956Z,71.65
2022-10-22T06:49:26.583Z,71.31
2022-10-22T06:50:28.148Z,71.39
2022-10-22T06:51:30.035Z,71.63
2022-10-22T06:52:31.587Z,71.58
2022-10-22T06:53:33.174Z,71.80
2022-10-22T06:54:34.796Z,71.64
2022-10-22T06:55:36.355Z,71.71
2022-10-22T06:56:37.937Z,71.56
2022-10-22T06:57:39.949Z,71.65
2022-10-22T06:58:41.881Z,71.17
2022-10-22T06:59:43.488Z,71.00
2022-10-22T07:00:45.071Z,70.65
2022-10-22T07:01:46.756Z,71.02
2022-10-22T07:02:59.016Z,71.09
2022-10-22T07:04:01.811Z,71.15
2022-10-22T07:05:03.584Z,71.03
2022-10-22T07:06:07.289Z,71.38
2022-10-22T07:07:08.856Z,71.94
2022-10-22T07:08:10.445Z,72.15
2022-10-22T07:09:12.081Z,72.34
2022-10-22T07:10:13.761Z,72.93
2022-10-22T07:11:26.416Z,72.61
2022-10-22T07:12:27.983Z,72.32
2022-10-22T07:13:29.575Z,71.44
2022-10-22T07:14:31.264Z,71.31
2022-10-22T07:15:32.930Z,71.36
2022-10-22T07:16:34.484Z,71.50
2022-10-22T07:17:36.080Z,71.59
2022-10-22T07:18:37.983Z,71.81
2022-10-22T07:19:39.638Z,71.80
2022-10-22T07:20:41.190Z,72.02
2022-10-22T07:21:42.926Z,71.82
2022-10-22T07:22:45.245Z,72.09
2022-10-22T07:23:47.005Z,72.03
2022-10-22T07:24:48.808Z,71.67
2022-10-22T07:25:50.411Z,71.65
2022-10-22T07:26:51.972Z,71.65
2022-10-22T07:27:53.620Z,71.77
2022-10-22T07:28:55.213Z,71.62
2022-10-22T07:29:56.855Z,71.94
2022-10-22T07:30:58.423Z,71.82
2022-10-22T07:32:00.032Z,71.45
2022-10-22T07:33:01.682Z,71.45
2022-10-22T07:34:03.264Z,71.63
2022-10-22T07:35:05.275Z,71.42
2022-10-22T07:36:08.941Z,71.36
2022-10-22T07:37:10.532Z,70.92
2022-10-22T07:38:12.082Z,70.45
2022-10-22T07:39:13.703Z,70.83
2022-10-22T07:40:15.268Z,70.87
2022-10-22T07:41:17.062Z,70.15
2022-10-22T07:42:18.637Z,70.41
2022-10-22T07:43:20.356Z,70.41
2022-10-22T07:44:21.952Z,69.53
2022-10-22T07:45:23.535Z,69.04
2022-10-22T07:46:25.347Z,68.96
2022-10-22T07:47:26.976Z,68.72
2022-10-22T07:48:28.722Z,68.79
2022-10-22T07:49:30.328Z,68.96
2022-10-22T07:50:31.901Z,69.33
2022-10-22T07:51:33.498Z,68.94
2022-10-22T07:52:35.045Z,68.37
2022-10-22T07:53:36.811Z,67.76
2022-10-22T07:54:38.430Z,67.70
2022-10-22T07:55:40.013Z,67.36
2022-10-22T07:56:41.670Z,67.12
2022-10-22T07:57:43.255Z,66.73
2022-10-22T07:58:44.826Z,65.85
2022-10-22T07:59:46.382Z,65.97
2022-10-22T08:00:48.222Z,66.00
2022-10-22T08:01:49.815Z,64.41
2022-10-22T08:02:51.362Z,64.27
2022-10-22T08:03:53.007Z,65.03
2022-10-22T08:04:57.087Z,64.67
2022-10-22T08:05:58.682Z,63.28
2022-10-22T08:07:00.808Z,63.42
2022-10-22T08:08:02.363Z,62.34
2022-10-22T08:09:04.082Z,62.98
2022-10-22T08:10:06.357Z,63.05
2022-10-22T08:11:07.944Z,62.02
2022-10-22T08:12:09.579Z,61.81
2022-10-22T08:13:11.311Z,62.95
2022-10-22T08:14:12.881Z,62.54
2022-10-22T08:15:14.444Z,61.99
2022-10-22T08:16:16.037Z,62.10
2022-10-22T08:17:17.693Z,62.50
2022-10-22T08:18:19.344Z,62.00
2022-10-22T08:19:21.347Z,62.38
2022-10-22T08:20:22.997Z,62.64
2022-10-22T08:21:24.552Z,62.75
2022-10-22T08:22:26.163Z,62.31
2022-10-22T08:23:28.965Z,62.26
2022-10-22T08:24:30.728Z,62.39
2022-10-22T08:25:32.575Z,62.13
2022-10-22T08:26:34.149Z,62.02
2022-10-22T08:27:35.741Z,62.60
2022-10-22T08:28:37.817Z,62.47
2022-10-22T08:29:39.552Z,62.13
2022-10-22T08:30:41.546Z,62.49
2022-10-22T08:31:43.144Z,63.13
2022-10-22T08:32:44.803Z,63.39
2022-10-22T08:33:46.334Z,63.81
2022-10-22T08:34:47.970Z,64.03
2022-10-22T08:35:50.394Z,63.24
2022-10-22T08:36:52.027Z,63.69
2022-10-22T08:37:53.586Z,63.40
2022-10-22T08:38:55.151Z,63.18
2022-10-22T08:39:56.851Z,62.94
2022-10-22T08:41:08.300Z,63.77
2022-10-22T08:42:34.578Z,63.55
2022-10-22T08:43:42.126Z,63.58
2022-10-22T08:45:16.929Z,63.16
2022-10-22T08:46:40.250Z,62.94
2022-10-22T08:47:48.701Z,63.25
2022-10-22T08:48:54.318Z,62.99
2022-10-22T08:49:57.145Z,63.06
2022-10-22T08:50:58.894Z,63.16
2022-10-22T08:52:00.520Z,63.40
2022-10-22T08:53:06.053Z,63.32
2022-10-22T08:54:46.480Z,63.84
2022-10-22T08:55:50.023Z,64.56
2022-10-22T08:57:12.789Z,63.98
2022-10-22T08:58:38.598Z,64.11
2022-10-22T08:59:50.169Z,63.94
2022-10-22T09:00:59.550Z,63.83
2022-10-22T09:02:01.198Z,64.05
2022-10-22T09:03:14.676Z,63.80
2022-10-22T09:04:19.590Z,64.55
2022-10-22T09:05:28.123Z,64.33
2022-10-22T09:06:31.869Z,63.95
2022-10-22T09:07:33.447Z,63.71
2022-10-22T09:08:35.122Z,63.61
2022-10-22T09:09:40.766Z,63.11
2022-10-22T09:10:46.383Z,63.53
2022-10-22T09:11:52.456Z,63.46
2022-10-22T09:12:54.080Z,63.99
2022-10-22T09:13:55.818Z,63.29
2022-10-22T09:14:57.376Z,63.64
2022-10-22T09:16:12.397Z,63.92
2022-10-22T09:17:46.947Z,63.65
2022-10-22T09:19:18.451Z,63.82
2022-10-22T09:20:52.012Z,64.41
2022-10-22T09:22:23.211Z,64.03
2022-10-22T09:23:34.000Z,63.34
2022-10-22T09:24:37.310Z,63.32
2022-10-22T09:25:39.418Z,63.67
2022-10-22T09:26:41.152Z,63.38
2022-10-22T09:27:43.132Z,63.62
2022-10-22T09:28:49.028Z,63.86
2022-10-22T09:29:50.586Z,64.02
2022-10-22T09:30:52.228Z,63.75
2022-10-22T09:31:53.862Z,64.64
2022-10-22T09:33:07.316Z,64.88
2022-10-22T09:34:08.900Z,64.54
2022-10-22T09:35:11.918Z,64.70
2022-10-22T09:36:15.992Z,64.68
2022-10-22T09:37:19.099Z,64.66
2022-10-22T09:38:24.257Z,64.73
2022-10-22T09:39:34.021Z,64.35
2022-10-22T09:40:45.911Z,64.91
2022-10-22T09:41:47.514Z,65.07
2022-10-22T09:42:49.168Z,65.06
2022-10-22T09:43:51.084Z,65.37
2022-10-22T09:44:55.171Z,64.39
2022-10-22T09:45:58.521Z,64.93
2022-10-22T09:47:00.096Z,64.34
2022-10-22T09:48:30.567Z,64.46
2022-10-22T09:49:34.676Z,64.52
2022-10-22T09:50:41.551Z,64.61
2022-10-22T09:51:56.927Z,64.46
2022-10-22T09:53:13.793Z,64.10
2022-10-22T09:54:18.003Z,64.82
2022-10-22T09:55:19.579Z,64.41
2022-10-22T09:56:25.710Z,64.72
2022-10-22T09:57:28.537Z,64.26
2022-10-22T09:58:30.149Z,64.62
2022-10-22T09:59:37.379Z,64.62
2022-10-22T10:00:40.470Z,64.32
2022-10-22T10:01:42.144Z,64.27
2022-10-22T10:02:43.822Z,64.56
2022-10-22T10:03:45.501Z,64.96
2022-10-22T10:04:51.600Z,65.38
2022-10-22T10:05:54.847Z,65.43
2022-10-22T10:06:57.055Z,65.28
2022-10-22T10:07:59.708Z,65.39
2022-10-22T10:09:06.771Z,64.80
2022-10-22T10:10:19.450Z,64.25
2022-10-22T10:11:29.074Z,64.15
2022-10-22T10:12:43.235Z,64.59
2022-10-22T10:13:58.946Z,64.47
2022-10-22T10:15:14.675Z,64.46
2022-10-22T10:16:26.040Z,64.37
2022-10-22T10:17:40.188Z,64.24
2022-10-22T10:19:03.198Z,64.07
2022-10-22T10:20:10.959Z,64.61
2022-10-22T10:21:33.407Z,65.02
2022-10-22T10:22:53.243Z,65.01
2022-10-22T10:24:24.137Z,64.82
2022-10-22T10:25:34.573Z,65.03
2022-10-22T10:26:39.924Z,65.25
2022-10-22T10:27:51.803Z,65.28
2022-10-22T10:29:11.023Z,65.57
2022-10-22T10:30:17.180Z,65.13
2022-10-22T10:31:48.028Z,65.59
2022-10-22T10:33:18.680Z,64.83
2022-10-22T10:34:25.890Z,64.42
2022-10-22T10:35:31.385Z,64.30
2022-10-22T10:37:05.528Z,63.81
2022-10-22T10:38:37.763Z,64.68
2022-10-22T10:39:51.726Z,64.18
2022-10-22T10:41:17.663Z,64.62
2022-10-22T10:42:40.953Z,64.95
2022-10-22T10:44:11.419Z,64.71
2022-10-22T10:45:20.751Z,64.87
2022-10-22T10:46:47.376Z,64.43
2022-10-22T10:48:01.095Z,64.33
2022-10-22T10:49:10.346Z,64.93
2022-10-22T10:50:23.765Z,64.91
2022-10-22T10:51:53.408Z,64.72
2022-10-22T10:53:10.389Z,64.83
2022-10-22T10:54:33.489Z,65.20
2022-10-22T10:56:00.143Z,64.96
2022-10-22T10:57:08.508Z,64.72
2022-10-22T10:58:21.515Z,64.85
2022-10-22T10:59:44.265Z,64.94
2022-10-22T11:00:57.092Z,65.16
2022-10-22T11:02:31.712Z,65.41
2022-10-22T11:03:50.520Z,65.39
2022-10-22T11:05:10.570Z,65.39
2022-10-22T11:06:16.505Z,66.47
2022-10-22T11:07:34.352Z,65.33
2022-10-22T11:08:43.552Z,65.49
2022-10-22T11:09:52.899Z,65.39
2022-10-22T11:11:14.680Z,65.17
2022-10-22T11:12:36.456Z,65.03
2022-10-22T11:13:43.667Z,64.71
2022-10-22T11:15:09.419Z,65.61
2022-10-22T11:16:39.325Z,65.94
2022-10-22T11:17:42.835Z,65.95
2022-10-22T11:18:58.269Z,65.42
2022-10-22T11:20:06.603Z,65.06
2022-10-22T11:21:40.047Z,65.01
2022-10-22T11:23:17.462Z,64.90
2022-10-22T11:24:30.963Z,65.06
2022-10-22T11:25:36.056Z,64.99
2022-10-22T11:26:52.227Z,65.71
2022-10-22T11:28:03.207Z,65.48
2022-10-22T11:29:09.954Z,65.20
2022-10-22T11:30:14.263Z,64.89
2022-10-22T11:31:17.027Z,64.90
2022-10-22T11:32:19.890Z,65.54
2022-10-22T11:33:23.288Z,65.36
2022-10-22T11:34:34.691Z,65.77
2022-10-22T11:35:39.362Z,65.88
2022-10-22T11:36:40.977Z,66.86
2022-10-22T11:37:42.833Z,66.02
2022-10-22T11:38:44.605Z,66.22
2022-10-22T11:39:57.035Z,66.89
2022-10-22T11:41:03.672Z,66.86
2022-10-22T11:42:09.514Z,64.96
2022-10-22T11:43:12.082Z,66.35
2022-10-22T11:44:23.688Z,66.61
2022-10-22T11:45:25.355Z,65.96
2022-10-22T11:46:30.062Z,66.51
2022-10-22T11:47:36.167Z,66.16
2022-10-22T11:48:38.084Z,65.65
2022-10-22T11:49:43.652Z,65.54
2022-10-22T11:50:49.190Z,66.50
2022-10-22T11:51:51.074Z,66.21
2022-10-22T11:53:04.082Z,66.17
2022-10-22T11:54:44.334Z,65.79
2022-10-22T11:55:49.875Z,65.82
2022-10-22T11:57:17.909Z,65.08
2022-10-22T11:58:30.657Z,65.41
2022-10-22T11:59:49.679Z,65.37
2022-10-22T12:00:51.297Z,65.96
2022-10-22T12:01:55.196Z,65.66
2022-10-22T12:03:17.453Z,65.00
2022-10-22T12:04:22.343Z,64.98
2022-10-22T12:05:23.947Z,65.47
2022-10-22T12:06:28.860Z,64.55
2022-10-22T12:07:35.850Z,64.97
2022-10-22T12:08:47.148Z,65.03
2022-10-22T12:11:20.457Z,64.68
2022-10-22T12:12:22.028Z,64.87
2022-10-22T12:13:32.201Z,64.83
2022-10-22T12:14:34.128Z,64.49
2022-10-22T12:15:35.703Z,64.80
2022-10-22T12:16:56.643Z,64.82
2022-10-22T12:18:00.250Z,64.68
2022-10-22T12:19:14.212Z,64.54
2022-10-22T12:20:17.146Z,64.71
2022-10-22T12:21:18.750Z,65.79
2022-10-22T12:22:28.675Z,65.99
2022-10-22T12:23:32.390Z,65.82
2022-10-22T12:24:38.732Z,65.72
2022-10-22T12:25:40.437Z,66.49
2022-10-22T12:26:42.036Z,65.52
2022-10-22T12:27:43.761Z,66.58
2022-10-22T12:28:45.622Z,66.47
2022-10-22T12:29:47.236Z,66.21
2022-10-22T12:30:48.809Z,66.10
2022-10-22T12:31:50.415Z,66.09
2022-10-22T12:32:54.299Z,66.46
2022-10-22T12:33:59.678Z,65.87
2022-10-22T12:35:08.140Z,65.81
2022-10-22T12:36:19.510Z,65.23
2022-10-22T12:37:21.342Z,65.82
2022-10-22T12:38:23.795Z,65.90
2022-10-22T12:39:28.490Z,66.79
2022-10-22T12:40:32.933Z,67.08
2022-10-22T12:41:35.679Z,66.43
2022-10-22T12:42:38.449Z,65.47
2022-10-22T12:43:40.039Z,66.25
2022-10-22T12:44:41.608Z,65.96
2022-10-22T12:45:44.154Z,65.33
2022-10-22T12:46:47.195Z,65.32
2022-10-22T12:47:49.201Z,65.28
2022-10-22T12:48:50.799Z,65.31
2022-10-22T12:49:52.416Z,65.58
2022-10-22T12:50:59.002Z,65.96
2022-10-22T12:52:04.357Z,65.53
2022-10-22T12:53:25.196Z,65.44
2022-10-22T12:54:28.957Z,65.48
2022-10-22T12:55:30.525Z,66.09
2022-10-22T12:56:33.242Z,66.13
2022-10-22T12:57:34.802Z,65.83
2022-10-22T12:59:00.780Z,65.67
2022-10-22T13:00:02.416Z,65.75
2022-10-22T13:01:04.126Z,66.15
2022-10-22T13:02:31.901Z,66.16
2022-10-22T13:03:40.479Z,66.61
2022-10-22T13:04:42.119Z,66.20
2022-10-22T13:05:43.703Z,66.09
2022-10-22T13:06:46.846Z,65.90
2022-10-22T13:07:53.429Z,65.87
2022-10-22T13:09:04.187Z,66.18
2022-10-22T13:10:24.846Z,65.79
2022-10-22T13:11:58.344Z,66.13
2022-10-22T13:13:03.219Z,66.02
2022-10-22T13:14:06.055Z,66.37
2022-10-22T13:15:22.408Z,66.78
2022-10-22T13:16:25.767Z,66.79
2022-10-22T13:17:41.217Z,67.00
2022-10-22T13:18:44.037Z,66.74
2022-10-22T13:20:10.431Z,67.13
2022-10-22T13:21:48.563Z,67.42
2022-10-22T13:23:00.228Z,67.63
2022-10-22T13:24:03.663Z,67.91
2022-10-22T13:25:05.391Z,68.32
2022-10-22T13:26:16.979Z,68.26
2022-10-22T13:27:18.576Z,67.77
2022-10-22T13:28:20.971Z,67.92
2022-10-22T13:29:22.962Z,67.66
2022-10-22T13:30:35.629Z,67.50
2022-10-22T13:31:38.348Z,67.64
2022-10-22T13:32:40.136Z,67.67
2022-10-22T13:33:42.935Z,68.16
2022-10-22T13:34:44.496Z,68.39
2022-10-22T13:35:46.130Z,68.91
2022-10-22T13:36:48.204Z,69.07
2022-10-22T13:37:49.838Z,69.24
2022-10-22T13:38:51.445Z,69.33
2022-10-22T13:39:53.127Z,69.38
2022-10-22T13:40:54.998Z,69.68
2022-10-22T13:41:56.644Z,70.15
2022-10-22T13:42:58.299Z,70.00
2022-10-22T13:43:59.878Z,70.18
2022-10-22T13:45:01.457Z,70.37
2022-10-22T13:46:03.097Z,70.31
2022-10-22T13:47:09.514Z,70.52
2022-10-22T13:48:16.821Z,70.35
2022-10-22T13:49:19.778Z,70.46
2022-10-22T13:50:21.579Z,70.58
2022-10-22T13:51:25.801Z,70.75
2022-10-22T13:52:36.044Z,70.60
2022-10-22T13:53:37.768Z,70.72
2022-10-22T13:54:39.407Z,70.62
2022-10-22T13:55:41.048Z,70.57
2022-10-22T13:56:42.679Z,70.58
2022-10-22T13:57:44.518Z,70.70
2022-10-22T13:58:46.436Z,70.78
2022-10-22T13:59:48.043Z,70.86
2022-10-22T14:00:59.254Z,70.81
2022-10-22T14:02:05.963Z,71.12
2022-10-22T14:03:10.222Z,71.15
2022-10-22T14:04:12.906Z,71.33
2022-10-22T14:05:15.368Z,71.75
2022-10-22T14:06:18.152Z,71.34